Latest Weather Observations for Beaudesert AWS

IDQ60901

Issued at 11:01 am EST Sunday 24 July 2016 (issued every 10 minutes, with the page automatically refreshed every 10 minutes)

About weather observations | Map of Brisbane area stations | Latest observations for Brisbane area | Other Formats
Station Details ID: 040983 Name: BEAUDESERT DRUMLEY STREET Lat: -27.97 Lon: 152.99 Height: 47.81 m
Data from the previous 72 hours. | See also: Recent months at Beaudesert AWS
Date/Time
EST
Temp
°C
App
Temp
°C
Dew
Point
°C
Rel
Hum
%
Delta-T
°C
Wind Press
QNH
hPa
Press
MSL
hPa
Rain since
9am
mm
Dir  Spd
km/h
Gust
km/h
Spd
kts
Gust
kts
24/11:00am 19.3 16.6 2.6 33 7.7 NW 6 11 3 6 1016.5 1016.5 0.0
24/10:30am 18.6 16.0 3.3 36 7.2 WNW 6 9 3 5 1016.8 1016.8 0.0
24/10:00am 17.2 14.7 3.8 41 6.2 WSW 6 11 3 6 1017.2 1017.2 0.0
24/09:30am 17.0 15.2 3.3 40 6.3 WNW 2 6 1 3 1017.3 1017.3 0.0
24/09:00am 14.7 12.9 5.2 53 4.5 WSW 4 7 2 4 1017.0 1017.0 0.0
24/08:30am 13.4 12.1 6.0 61 3.5 WSW 2 4 1 2 1016.8 1016.8 0.0
24/08:00am 11.2 10.7 7.7 79 1.7 CALM 0 0 0 0 1016.6 1016.6 0.0
24/07:30am 10.6 9.8 6.4 75 2.0 CALM 0 2 0 1 1016.3 1016.3 0.0
24/07:00am 9.9 8.6 6.1 77 1.8 WNW 2 6 1 3 1016.1 1016.1 0.0
24/06:30am 10.0 8.9 5.2 72 2.2 CALM 0 6 0 3 1015.6 1015.6 0.0
24/06:00am 10.2 9.1 5.0 70 2.4 CALM 0 2 0 1 1015.1 1015.1 0.0
24/05:30am 11.0 9.9 4.9 66 2.8 CALM 0 0 0 0 1014.7 1014.7 0.0
24/05:00am 10.9 9.7 4.6 65 2.8 CALM 0 0 0 0 1014.3 1014.3 0.0
24/04:30am 11.2 9.9 4.0 61 3.2 CALM 0 0 0 0 1014.0 1014.0 0.0
24/04:00am 11.9 10.3 4.6 61 3.3 S 2 4 1 2 1013.8 1013.8 0.0
24/03:30am 12.0 10.9 5.0 62 3.2 CALM 0 2 0 1 1014.2 1014.2 0.0
24/03:00am 11.0 10.0 5.5 69 2.5 CALM 0 2 0 1 1014.2 1014.2 0.0
24/02:30am 11.6 9.7 5.0 64 3.0 SSE 4 6 2 3 1014.3 1014.3 0.0
24/02:00am 10.7 9.0 5.9 72 2.2 E 4 6 2 3 1014.4 1014.4 0.0
24/01:30am 9.9 7.7 5.3 73 2.1 S 6 7 3 4 1014.4 1014.4 0.0
24/01:00am 10.4 8.4 4.5 67 2.6 SSW 4 4 2 2 1014.5 1014.5 0.0
24/12:30am 12.0 10.2 5.4 64 3.1 E 4 7 2 4 1014.2 1014.2 0.0
24/12:00am 10.4 8.5 5.0 69 2.4 WSW 4 4 2 2 1013.8 1013.8 0.0
 
Date/Time
EST
Temp
°C
App
Temp
°C
Dew
Point
°C
Rel
Hum
%
Delta-T
°C
Wind Press
QNH
hPa
Press
MSL
hPa
Rain since
9am
mm
Dir  Spd
km/h
Gust
km/h
Spd
kts
Gust
kts
23/11:30pm 13.3 11.5 5.2 58 3.8 ESE 4 6 2 3 1013.7 1013.7 0.0
23/11:00pm 14.0 11.8 5.1 55 4.2 SE 6 9 3 5 1013.5 1013.5 0.0
23/10:30pm 12.9 10.0 4.6 57 3.8 WSW 9 11 5 6 1013.1 1013.1 0.0
23/10:00pm 15.6 14.1 5.2 50 4.9 ESE 2 6 1 3 1013.1 1013.1 0.0
23/09:30pm 15.7 14.2 5.0 49 5.1 SW 2 6 1 3 1013.0 1013.0 0.0
23/09:00pm 15.7 12.4 4.4 47 5.3 SW 11 15 6 8 1012.8 1012.8 0.0
23/08:30pm 18.2 15.7 4.7 41 6.5 S 7 11 4 6 1012.7 1012.7 0.0
23/08:00pm 18.2 15.4 5.1 42 6.3 WSW 9 15 5 8 1012.2 1012.2 0.0
23/07:30pm 18.3 16.1 5.5 43 6.2 SW 6 7 3 4 1011.8 1011.8 0.0
23/07:00pm 19.3 17.6 6.1 42 6.6 SW 4 9 2 5 1010.8 1010.8 0.0
23/06:30pm 18.9 17.0 7.4 47 5.8 SW 7 13 4 7 1011.1 1011.1 0.0
23/06:00pm 21.9 19.3 7.7 40 7.4 W 11 19 6 10 1009.9 1009.9 0.0
23/05:30pm 23.0 20.0 7.9 38 7.9 W 13 20 7 11 1009.3 1009.3 0.0
23/05:00pm 24.7 20.4 7.8 34 9.0 W 20 32 11 17 1008.8 1008.8 0.0
23/04:30pm 25.8 21.8 9.2 35 9.1 W 20 30 11 16 1008.5 1008.5 0.0
23/04:00pm 27.1 24.9 12.0 39 8.7 WSW 15 24 8 13 1008.0 1008.0 0.0
23/03:30pm 27.7 24.4 11.7 37 9.2 W 20 32 11 17 1007.6 1007.6 0.0
23/03:00pm 28.0 24.8 12.0 37 9.3 W 20 33 11 18 1007.3 1007.3 0.0
23/02:30pm 28.3 25.2 12.2 37 9.4 W 20 30 11 16 1007.2 1007.2 0.0
23/02:00pm 28.1 25.3 12.5 38 9.1 WNW 19 30 10 16 1007.2 1007.2 0.0
23/01:30pm 28.1 25.3 13.2 39 8.8 WNW 20 39 11 21 1006.9 1006.9 0.0
23/01:00pm 27.9 23.6 13.1 40 8.7 W 28 46 15 25 1007.4 1007.4 0.0
23/12:59pm 27.9 23.4 12.7 39 8.9 W 28 46 15 25 1007.4 1007.4 0.0
23/12:30pm 27.7 24.2 13.3 41 8.5 W 24 37 13 20 1007.6 1007.6 0.0
23/12:00pm 27.4 23.4 14.1 44 8.0 W 28 46 15 25 1007.9 1007.9 0.0
23/11:30am 27.2 24.4 14.2 44 7.8 W 22 32 12 17 1008.2 1008.2 0.0
23/11:00am 27.4 26.2 16.1 50 7.0 W 17 26 9 14 1008.1 1008.1 0.0
23/10:30am 26.6 24.4 15.0 49 7.0 W 20 33 11 18 1008.5 1008.5 0.0
23/10:00am 25.5 25.2 17.4 61 5.1 WNW 15 28 8 15 1008.7 1008.7 0.0
23/09:30am 24.7 25.4 17.9 66 4.3 NW 11 24 6 13 1008.7 1008.7 0.0
23/09:00am 23.0 25.2 19.2 79 2.4 NW 6 13 3 7 1008.8 1008.8 0.2
23/08:30am 20.2 23.3 18.7 91 0.9 CALM 0 0 0 0 1009.1 1009.1 0.2
23/08:00am 16.8 18.7 16.6 99 0.1 ENE 2 6 1 3 1009.5 1009.5 0.2
23/07:30am 14.3 15.6 14.1 99 0.1 CALM 0 0 0 0 1009.5 1009.5 0.2
23/07:00am 12.9 13.4 12.7 99 0.1 SSE 2 6 1 3 1009.5 1009.5 0.2
23/06:30am 11.6 12.0 11.4 99 0.1 CALM 0 0 0 0 1009.2 1009.2 0.2
23/06:00am 13.0 13.5 12.8 99 0.1 E 2 2 1 1 1008.9 1008.9 0.2
23/05:30am 12.1 12.7 11.9 99 0.1 CALM 0 4 0 2 1008.8 1008.8 0.2
23/05:00am 12.3 13.0 12.1 99 0.1 CALM 0 0 0 0 1008.7 1008.7 0.2
23/04:30am 12.5 13.2 12.3 99 0.1 CALM 0 0 0 0 1008.6 1008.6 0.2
23/04:00am 12.7 13.5 12.5 99 0.1 CALM 0 0 0 0 1008.5 1008.5 0.2
23/03:30am 13.2 14.1 13.0 99 0.1 CALM 0 0 0 0 1008.8 1008.8 0.2
23/03:00am 13.4 14.4 13.2 99 0.1 CALM 0 0 0 0 1009.0 1009.0 0.2
23/02:30am 13.1 13.6 12.9 99 0.1 NNE 2 6 1 3 1009.4 1009.4 0.2
23/02:00am 13.0 13.8 12.7 98 0.2 CALM 0 0 0 0 1009.7 1009.7 0.2
23/01:30am 13.6 14.6 13.3 98 0.2 CALM 0 0 0 0 1010.0 1010.0 0.2
23/01:00am 13.5 14.5 13.2 98 0.2 CALM 0 0 0 0 1010.3 1010.3 0.2
23/12:30am 14.1 15.2 13.6 97 0.3 CALM 0 0 0 0 1010.2 1010.2 0.2
23/12:00am 14.7 16.0 14.2 97 0.3 CALM 0 0 0 0 1010.4 1010.4 0.2
 
Date/Time
EST
Temp
°C
App
Temp
°C
Dew
Point
°C
Rel
Hum
%
Delta-T
°C
Wind Press
QNH
hPa
Press
MSL
hPa
Rain since
9am
mm
Dir  Spd
km/h
Gust
km/h
Spd
kts
Gust
kts
22/11:30pm 14.9 16.3 14.3 96 0.3 CALM 0 0 0 0 1010.7 1010.7 0.2
22/11:00pm 15.2 16.5 14.2 94 0.6 CALM 0 0 0 0 1011.1 1011.1 0.2
22/10:30pm 16.5 18.5 16.0 97 0.3 CALM 0 0 0 0 1011.2 1011.2 0.2
22/10:00pm 16.4 18.1 15.3 93 0.6 CALM 0 0 0 0 1011.4 1011.4 0.2
22/09:30pm 17.0 18.7 15.3 90 1.0 CALM 0 0 0 0 1011.4 1011.4 0.2
22/09:00pm 17.8 19.8 16.0 89 1.1 CALM 0 0 0 0 1011.4 1011.4 0.2
22/08:30pm 19.1 21.5 17.1 88 1.2 CALM 0 0 0 0 1011.3 1011.3 0.2
22/08:00pm 19.9 22.2 16.7 82 1.9 CALM 0 4 0 2 1011.4 1011.4 0.2
22/07:30pm 21.0 23.6 17.4 80 2.2 CALM 0 6 0 3 1011.6 1011.6 0.2
22/07:00pm 21.5 23.6 17.3 77 2.6 NE 2 4 1 2 1011.4 1011.4 0.2
22/06:30pm 22.5 23.5 17.8 75 2.9 N 9 17 5 9 1011.1 1011.1 0.2
22/06:00pm 23.0 24.1 18.1 74 3.1 NNE 9 17 5 9 1010.9 1010.9 0.2
22/05:30pm 23.5 25.4 17.7 70 3.6 NE 4 13 2 7 1010.5 1010.5 0.2
22/05:00pm 24.9 26.7 17.4 63 4.7 NNE 4 6 2 3 1010.1 1010.1 0.2
22/04:30pm 26.3 28.0 17.1 57 5.7 NNW 4 6 2 3 1010.1 1010.1 0.2
22/04:00pm 26.7 28.0 17.2 56 6.0 N 6 9 3 5 1010.1 1010.1 0.2
22/03:30pm 26.9 27.9 16.8 54 6.3 NNW 7 15 4 8 1010.4 1010.4 0.2
22/03:00pm 27.4 29.0 17.8 55 6.1 NW 6 9 3 5 1010.4 1010.4 0.2
22/02:30pm 26.8 27.7 17.6 57 5.8 NW 9 17 5 9 1010.8 1010.8 0.2
22/02:00pm 26.5 27.8 17.6 58 5.6 NW 7 13 4 7 1011.3 1011.3 0.2
22/01:30pm 25.6 26.9 17.5 61 5.1 NNW 7 13 4 7 1011.6 1011.6 0.2
22/01:00pm 25.5 27.9 18.7 66 4.3 NNW 4 9 2 5 1012.2 1012.2 0.2
22/12:30pm 23.9 25.4 17.6 68 3.9 NW 6 13 3 7 1012.9 1012.9 0.2
22/12:00pm 23.1 24.4 17.6 71 3.4 WNW 7 13 4 7 1013.7 1013.7 0.2
22/11:30am 22.7 24.2 17.6 73 3.2 NW 6 9 3 5 1014.4 1014.4 0.0
22/11:00am 22.0 24.2 18.4 80 2.3 N 4 9 2 5 1015.0 1015.0 0.0
22/10:30am 19.4 21.9 18.2 93 0.7 WNW 2 6 1 3 1015.7 1015.7 0.0
22/10:00am 17.2 19.6 17.0 99 0.1 CALM 0 4 0 2 1016.1 1016.1 0.0
22/09:30am 16.6 18.8 16.4 99 0.1 CALM 0 4 0 2 1016.4 1016.4 0.0
22/09:00am 15.9 17.4 15.7 99 0.1 NW 2 4 1 2 1016.4 1016.4 0.0
22/08:30am 15.3 17.0 15.1 99 0.1 CALM 0 0 0 0 1016.3 1016.3 0.0
22/08:00am 14.6 16.0 14.4 99 0.1 CALM 0 4 0 2 1016.3 1016.3 0.0
22/07:30am 14.2 15.1 14.0 99 0.1 SSE 2 4 1 2 1016.1 1016.1 0.0
22/07:00am 13.9 14.7 13.7 99 0.1 ESE 2 4 1 2 1016.1 1016.1 0.0
22/06:30am 13.5 14.5 13.3 99 0.1 CALM 0 0 0 0 1016.2 1016.2 0.0
22/06:00am 13.2 14.1 13.0 99 0.1 CALM 0 2 0 1 1015.9 1015.9 0.0
22/05:30am 14.3 15.6 14.1 99 0.1 CALM 0 2 0 1 1015.6 1015.6 0.0
22/05:00am 14.4 15.7 14.2 99 0.1 CALM 0 0 0 0 1015.4 1015.4 0.0
22/04:30am 14.6 16.0 14.4 99 0.1 CALM 0 0 0 0 1015.4 1015.4 0.0
22/04:00am 14.6 16.0 14.4 99 0.1 CALM 0 0 0 0 1015.5 1015.5 0.0
22/03:30am 14.3 15.6 14.1 99 0.1 CALM 0 0 0 0 1015.9 1015.9 0.0
22/03:00am 14.6 15.6 14.4 99 0.1 E 2 4 1 2 1016.3 1016.3 0.0
22/02:30am 13.5 14.4 13.0 97 0.3 CALM 0 0 0 0 1016.4 1016.4 0.0
22/02:00am 13.9 14.9 13.1 95 0.4 CALM 0 0 0 0 1016.3 1016.3 0.0
22/01:30am 15.3 16.9 15.0 98 0.2 CALM 0 0 0 0 1016.3 1016.3 0.0
22/01:00am 15.1 16.6 14.6 97 0.3 CALM 0 0 0 0 1016.8 1016.8 0.0
22/12:30am 15.4 16.8 14.4 94 0.6 CALM 0 0 0 0 1017.0 1017.0 0.0
22/12:00am 16.7 18.8 16.2 97 0.3 CALM 0 0 0 0 1017.2 1017.2 0.0
 
Date/Time
EST
Temp
°C
App
Temp
°C
Dew
Point
°C
Rel
Hum
%
Delta-T
°C
Wind Press
QNH
hPa
Press
MSL
hPa
Rain since
9am
mm
Dir  Spd
km/h
Gust
km/h
Spd
kts
Gust
kts
21/11:30pm 16.4 18.5 16.2 99 0.1 CALM 0 0 0 0 1017.4 1017.4 0.0
21/11:00pm 15.2 16.7 14.6 96 0.3 CALM 0 0 0 0 1017.4 1017.4 0.0
21/10:30pm 15.2 16.6 14.4 95 0.5 CALM 0 2 0 1 1017.2 1017.2 0.0
21/10:00pm 15.3 16.6 14.0 92 0.7 CALM 0 0 0 0 1017.0 1017.0 0.0
21/09:30pm 16.1 17.7 14.8 92 0.7 CALM 0 0 0 0 1016.9 1016.9 0.0
21/09:00pm 17.0 18.7 15.2 89 1.0 CALM 0 0 0 0 1016.7 1016.7 0.0
21/08:30pm 18.1 20.1 15.9 87 1.3 CALM 0 0 0 0 1016.5 1016.5 0.0
21/08:00pm 19.3 21.4 16.3 83 1.8 CALM 0 0 0 0 1016.4 1016.4 0.0
21/07:30pm 19.9 21.7 16.5 81 2.1 NW 2 6 1 3 1016.4 1016.4 0.0
21/07:00pm 20.7 21.8 16.7 78 2.4 NNW 6 7 3 4 1016.1 1016.1 0.0
21/06:30pm 21.3 22.9 16.9 76 2.7 N 4 6 2 3 1016.0 1016.0 0.0
21/06:00pm 21.9 23.7 17.3 75 2.8 NNE 4 6 2 3 1015.8 1015.8 0.0
21/05:30pm 22.6 24.3 17.1 71 3.4 NE 4 9 2 5 1015.4 1015.4 0.0
21/05:00pm 23.4 26.0 17.4 69 3.7 CALM 0 0 0 0 1015.3 1015.3 0.0
21/04:30pm 24.0 25.8 17.5 67 4.0 WSW 4 6 2 3 1015.1 1015.1 0.0
21/04:00pm 24.9 26.4 16.6 60 5.1 NNW 4 6 2 3 1014.9 1014.9 0.0
21/03:30pm 25.3 26.8 16.7 59 5.3 N 4 7 2 4 1015.0 1015.0 0.0
21/03:00pm 25.4 26.8 16.5 58 5.5 NNW 4 6 2 3 1015.0 1015.0 0.0
21/02:30pm 25.7 27.3 16.8 58 5.5 NNE 4 9 2 5 1015.1 1015.1 0.0
21/02:00pm 25.4 26.5 16.5 58 5.5 NW 6 11 3 6 1015.2 1015.2 0.0
21/01:30pm 25.4 27.5 17.1 60 5.2 NE 2 7 1 4 1015.6 1015.6 0.0
21/01:00pm 25.1 26.8 17.1 61 5.0 NNE 4 9 2 5 1016.1 1016.1 0.0
21/12:30pm 24.8 26.3 17.5 64 4.6 NNE 6 9 3 5 1016.6 1016.6 0.0
21/12:00pm 23.8 25.3 16.6 64 4.4 N 4 7 2 4 1017.1 1017.1 0.0
21/11:30am 22.4 24.3 16.7 70 3.5 WNW 2 6 1 3 1017.8 1017.8 0.0

Latest Capital City Observations: Canberra | Sydney | Melbourne | Brisbane | Adelaide | Perth | Hobart | Darwin

Other Formats:

Comma delimited format used in spreadsheet applications
http://www.bom.gov.au/fwo/IDQ60901/IDQ60901.95575.axf

JavaScript Object Notation format (JSON) in row-major order
http://www.bom.gov.au/fwo/IDQ60901/IDQ60901.95575.json